sensor_id;sensor_type;location;lat;lon;timestamp;pressure;altitude;pressure_sealevel;temperature;humidity
76011;BME280;64701;43.536;1.478;2024-03-23T00:53:14;99914.69;;;15.74;100.00
76011;BME280;64701;43.536;1.478;2024-03-23T00:55:42;99908.78;;;15.72;100.00
76011;BME280;64701;43.536;1.478;2024-03-23T00:58:08;99925.22;;;15.69;100.00
76011;BME280;64701;43.536;1.478;2024-03-23T01:00:33;99919.88;;;15.69;100.00
76011;BME280;64701;43.536;1.478;2024-03-23T01:02:59;99934.28;;;15.62;100.00
76011;BME280;64701;43.536;1.478;2024-03-23T01:05:24;99927.66;;;15.71;100.00
76011;BME280;64701;43.536;1.478;2024-03-23T01:07:49;99927.25;;;15.67;100.00
76011;BME280;64701;43.536;1.478;2024-03-23T01:10:14;99938.38;;;15.64;100.00
76011;BME280;64701;43.536;1.478;2024-03-23T01:12:40;99940.03;;;15.65;100.00
76011;BME280;64701;43.536;1.478;2024-03-23T01:15:05;99935.53;;;15.59;100.00
76011;BME280;64701;43.536;1.478;2024-03-23T01:17:31;99935.53;;;15.59;100.00
76011;BME280;64701;43.536;1.478;2024-03-23T01:19:57;99944.13;;;15.61;100.00
76011;BME280;64701;43.536;1.478;2024-03-23T01:22:22;99946.59;;;15.63;100.00
76011;BME280;64701;43.536;1.478;2024-03-23T01:24:47;99955.59;;;15.68;100.00
76011;BME280;64701;43.536;1.478;2024-03-23T01:27:12;99962.22;;;15.59;100.00
76011;BME280;64701;43.536;1.478;2024-03-23T01:29:38;99961.78;;;15.62;100.00
76011;BME280;64701;43.536;1.478;2024-03-23T01:32:03;99962.78;;;15.68;100.00
76011;BME280;64701;43.536;1.478;2024-03-23T01:34:29;99963.03;;;15.66;100.00
76011;BME280;64701;43.536;1.478;2024-03-23T01:36:54;99950.69;;;15.65;100.00
76011;BME280;64701;43.536;1.478;2024-03-23T01:39:19;99966.72;;;15.65;100.00
76011;BME280;64701;43.536;1.478;2024-03-23T01:41:45;99963.19;;;15.71;100.00
76011;BME280;64701;43.536;1.478;2024-03-23T01:44:10;99959.28;;;15.67;100.00
76011;BME280;64701;43.536;1.478;2024-03-23T01:46:36;99957.25;;;15.69;100.00
76011;BME280;64701;43.536;1.478;2024-03-23T01:49:02;99956.00;;;15.72;100.00
76011;BME280;64701;43.536;1.478;2024-03-23T01:51:28;99967.91;;;15.69;100.00
76011;BME280;64701;43.536;1.478;2024-03-23T01:53:54;99973.88;;;15.71;100.00
76011;BME280;64701;43.536;1.478;2024-03-23T01:56:19;99970.41;;;15.64;100.00
76011;BME280;64701;43.536;1.478;2024-03-23T01:58:44;99968.78;;;15.63;100.00
76011;BME280;64701;43.536;1.478;2024-03-23T02:01:10;99972.09;;;15.59;100.00
76011;BME280;64701;43.536;1.478;2024-03-23T02:03:35;99978.25;;;15.59;100.00
76011;BME280;64701;43.536;1.478;2024-03-23T02:06:01;99975.16;;;15.56;100.00
76011;BME280;64701;43.536;1.478;2024-03-23T02:08:26;99962.25;;;15.46;100.00
76011;BME280;64701;43.536;1.478;2024-03-23T02:10:51;99981.31;;;15.49;100.00
76011;BME280;64701;43.536;1.478;2024-03-23T02:13:17;99978.72;;;15.36;100.00
76011;BME280;64701;43.536;1.478;2024-03-23T02:15:43;99986.91;;;15.41;100.00
76011;BME280;64701;43.536;1.478;2024-03-23T02:18:09;99997.63;;;15.35;100.00
76011;BME280;64701;43.536;1.478;2024-03-23T02:20:35;99994.31;;;15.33;100.00
76011;BME280;64701;43.536;1.478;2024-03-23T02:23:00;100001.31;;;15.27;100.00
76011;BME280;64701;43.536;1.478;2024-03-23T02:25:26;99999.06;;;15.31;100.00
76011;BME280;64701;43.536;1.478;2024-03-23T02:27:51;99988.81;;;15.21;100.00
76011;BME280;64701;43.536;1.478;2024-03-23T02:30:19;99997.09;;;15.06;100.00
76011;BME280;64701;43.536;1.478;2024-03-23T02:32:44;100016.16;;;15.03;100.00
76011;BME280;64701;43.536;1.478;2024-03-23T02:35:09;100006.31;;;14.97;99.83
76011;BME280;64701;43.536;1.478;2024-03-23T02:37:34;100010.66;;;14.92;98.93
76011;BME280;64701;43.536;1.478;2024-03-23T02:40:00;100015.34;;;14.96;97.00
76011;BME280;64701;43.536;1.478;2024-03-23T02:42:25;100022.31;;;14.97;95.96
76011;BME280;64701;43.536;1.478;2024-03-23T02:44:51;100031.16;;;14.91;95.82
76011;BME280;64701;43.536;1.478;2024-03-23T02:47:16;100028.69;;;14.90;95.08
76011;BME280;64701;43.536;1.478;2024-03-23T02:49:41;100022.97;;;14.86;94.99
76011;BME280;64701;43.536;1.478;2024-03-23T02:52:07;100024.59;;;14.74;95.33
76011;BME280;64701;43.536;1.478;2024-03-23T02:54:32;100029.31;;;14.72;94.70
76011;BME280;64701;43.536;1.478;2024-03-23T02:56:57;100025.44;;;14.68;95.64
76011;BME280;64701;43.536;1.478;2024-03-23T02:59:22;100027.69;;;14.58;97.10
76011;BME280;64701;43.536;1.478;2024-03-23T03:01:48;100026.88;;;14.64;97.78
76011;BME280;64701;43.536;1.478;2024-03-23T03:04:13;100017.44;;;14.55;97.64
76011;BME280;64701;43.536;1.478;2024-03-23T03:06:38;100013.34;;;14.46;97.96
76011;BME280;64701;43.536;1.478;2024-03-23T03:09:03;100017.03;;;14.45;98.45
76011;BME280;64701;43.536;1.478;2024-03-23T03:11:29;100023.31;;;14.30;100.00
76011;BME280;64701;43.536;1.478;2024-03-23T03:13:55;100014.50;;;14.30;100.00
76011;BME280;64701;43.536;1.478;2024-03-23T03:16:20;100013.28;;;14.19;100.00
76011;BME280;64701;43.536;1.478;2024-03-23T03:18:45;100010.81;;;14.11;99.74
76011;BME280;64701;43.536;1.478;2024-03-23T03:21:11;100030.47;;;14.10;99.96
76011;BME280;64701;43.536;1.478;2024-03-23T03:23:37;100022.06;;;14.13;100.00
76011;BME280;64701;43.536;1.478;2024-03-23T03:26:03;100048.31;;;14.10;100.00
76011;BME280;64701;43.536;1.478;2024-03-23T03:28:28;100043.59;;;14.05;100.00
76011;BME280;64701;43.536;1.478;2024-03-23T03:30:55;100046.81;;;14.01;100.00
76011;BME280;64701;43.536;1.478;2024-03-23T03:33:21;100035.75;;;13.90;100.00
76011;BME280;64701;43.536;1.478;2024-03-23T03:35:47;100038.59;;;13.82;100.00
76011;BME280;64701;43.536;1.478;2024-03-23T03:38:12;100037.78;;;13.82;100.00
76011;BME280;64701;43.536;1.478;2024-03-23T03:40:37;100030.78;;;13.74;100.00
76011;BME280;64701;43.536;1.478;2024-03-23T03:43:02;100033.25;;;13.76;100.00
76011;BME280;64701;43.536;1.478;2024-03-23T03:45:28;100025.47;;;13.74;100.00
76011;BME280;64701;43.536;1.478;2024-03-23T03:47:53;100026.69;;;13.72;100.00
76011;BME280;64701;43.536;1.478;2024-03-23T03:50:19;100039.97;;;13.72;100.00
76011;BME280;64701;43.536;1.478;2024-03-23T03:52:44;100042.88;;;13.77;100.00
76011;BME280;64701;43.536;1.478;2024-03-23T03:55:13;100043.47;;;13.72;100.00
76011;BME280;64701;43.536;1.478;2024-03-23T03:57:39;100049.81;;;13.71;100.00
76011;BME280;64701;43.536;1.478;2024-03-23T04:00:05;100060.25;;;13.73;100.00
76011;BME280;64701;43.536;1.478;2024-03-23T04:02:30;100061.25;;;13.65;100.00
76011;BME280;64701;43.536;1.478;2024-03-23T04:04:55;100070.88;;;13.66;100.00
76011;BME280;64701;43.536;1.478;2024-03-23T04:07:21;100060.16;;;13.53;100.00
76011;BME280;64701;43.536;1.478;2024-03-23T04:09:47;100077.34;;;13.51;100.00
76011;BME280;64701;43.536;1.478;2024-03-23T04:12:13;100079.78;;;13.45;100.00
76011;BME280;64701;43.536;1.478;2024-03-23T04:14:38;100097.16;;;13.41;100.00
76011;BME280;64701;43.536;1.478;2024-03-23T04:17:03;100098.38;;;13.39;100.00
76011;BME280;64701;43.536;1.478;2024-03-23T04:19:29;100100.81;;;13.34;100.00
76011;BME280;64701;43.536;1.478;2024-03-23T04:21:54;100105.47;;;13.32;100.00
76011;BME280;64701;43.536;1.478;2024-03-23T04:24:19;100111.75;;;13.24;100.00
76011;BME280;64701;43.536;1.478;2024-03-23T04:26:46;100118.09;;;13.23;100.00
76011;BME280;64701;43.536;1.478;2024-03-23T04:29:11;100127.72;;;13.24;100.00
76011;BME280;64701;43.536;1.478;2024-03-23T04:31:37;100121.41;;;13.25;100.00
76011;BME280;64701;43.536;1.478;2024-03-23T04:34:03;100126.97;;;13.09;100.00
76011;BME280;64701;43.536;1.478;2024-03-23T04:36:28;100132.38;;;13.16;100.00
76011;BME280;64701;43.536;1.478;2024-03-23T04:38:53;100132.28;;;13.09;100.00
76011;BME280;64701;43.536;1.478;2024-03-23T04:41:19;100130.25;;;13.11;100.00
76011;BME280;64701;43.536;1.478;2024-03-23T04:43:44;100137.06;;;13.14;100.00
76011;BME280;64701;43.536;1.478;2024-03-23T04:46:10;100141.28;;;13.08;100.00
76011;BME280;64701;43.536;1.478;2024-03-23T04:48:35;100147.50;;;13.15;100.00
76011;BME280;64701;43.536;1.478;2024-03-23T04:51:01;100148.53;;;13.14;100.00
76011;BME280;64701;43.536;1.478;2024-03-23T04:53:26;100151.72;;;13.09;100.00
76011;BME280;64701;43.536;1.478;2024-03-23T04:55:55;100152.19;;;13.13;100.00
76011;BME280;64701;43.536;1.478;2024-03-23T04:58:21;100144.38;;;13.12;100.00
76011;BME280;64701;43.536;1.478;2024-03-23T05:00:46;100148.25;;;13.09;100.00
76011;BME280;64701;43.536;1.478;2024-03-23T05:03:11;100148.38;;;13.01;99.99
76011;BME280;64701;43.536;1.478;2024-03-23T05:05:37;100147.72;;;12.92;99.91
76011;BME280;64701;43.536;1.478;2024-03-23T05:08:02;100150.16;;;12.94;99.49
76011;BME280;64701;43.536;1.478;2024-03-23T05:10:27;100155.97;;;13.04;99.31
76011;BME280;64701;43.536;1.478;2024-03-23T05:12:52;100148.19;;;13.02;99.25
76011;BME280;64701;43.536;1.478;2024-03-23T05:15:18;100147.38;;;13.02;98.24
76011;BME280;64701;43.536;1.478;2024-03-23T05:17:43;100150.03;;;13.02;98.63
76011;BME280;64701;43.536;1.478;2024-03-23T05:20:08;100153.09;;;13.05;98.58
76011;BME280;64701;43.536;1.478;2024-03-23T05:22:38;100153.06;;;12.99;98.34
76011;BME280;64701;43.536;1.478;2024-03-23T05:25:03;100158.34;;;12.92;98.88
76011;BME280;64701;43.536;1.478;2024-03-23T05:27:32;100161.84;;;12.99;98.16
76011;BME280;64701;43.536;1.478;2024-03-23T05:29:58;100162.69;;;13.00;98.27
76011;BME280;64701;43.536;1.478;2024-03-23T05:32:23;100162.88;;;12.98;98.06
76011;BME280;64701;43.536;1.478;2024-03-23T05:34:49;100162.88;;;12.98;98.67
76011;BME280;64701;43.536;1.478;2024-03-23T05:37:15;100165.53;;;12.98;98.37
76011;BME280;64701;43.536;1.478;2024-03-23T05:39:40;100170.03;;;12.98;98.80
76011;BME280;64701;43.536;1.478;2024-03-23T05:42:06;100170.22;;;12.96;98.40
76011;BME280;64701;43.536;1.478;2024-03-23T05:44:31;100182.44;;;12.91;98.85
76011;BME280;64701;43.536;1.478;2024-03-23T05:46:56;100186.09;;;12.90;99.43
76011;BME280;64701;43.536;1.478;2024-03-23T05:49:21;100180.03;;;12.96;99.23
76011;BME280;64701;43.536;1.478;2024-03-23T05:51:47;100181.69;;;12.97;99.43
76011;BME280;64701;43.536;1.478;2024-03-23T05:54:12;100194.56;;;13.00;100.00
76011;BME280;64701;43.536;1.478;2024-03-23T05:56:37;100187.38;;;12.94;100.00
76011;BME280;64701;43.536;1.478;2024-03-23T05:59:02;100185.69;;;12.86;100.00
76011;BME280;64701;43.536;1.478;2024-03-23T06:01:28;100192.69;;;12.94;100.00
76011;BME280;64701;43.536;1.478;2024-03-23T06:03:54;100192.31;;;12.97;100.00
76011;BME280;64701;43.536;1.478;2024-03-23T06:06:19;100193.06;;;12.91;100.00
76011;BME280;64701;43.536;1.478;2024-03-23T06:08:44;100191.41;;;12.90;100.00
76011;BME280;64701;43.536;1.478;2024-03-23T06:11:09;100198.22;;;12.92;100.00
76011;BME280;64701;43.536;1.478;2024-03-23T06:13:35;100193.97;;;12.98;100.00
76011;BME280;64701;43.536;1.478;2024-03-23T06:16:00;100199.47;;;12.96;100.00
76011;BME280;64701;43.536;1.478;2024-03-23T06:18:26;100205.34;;;12.92;100.00
76011;BME280;64701;43.536;1.478;2024-03-23T06:20:51;100211.03;;;12.89;100.00
76011;BME280;64701;43.536;1.478;2024-03-23T06:23:17;100216.50;;;12.81;100.00
76011;BME280;64701;43.536;1.478;2024-03-23T06:25:44;100212.94;;;12.74;100.00
76011;BME280;64701;43.536;1.478;2024-03-23T06:28:10;100211.47;;;12.71;100.00
76011;BME280;64701;43.536;1.478;2024-03-23T06:30:35;100210.38;;;12.65;100.00
76011;BME280;64701;43.536;1.478;2024-03-23T06:33:01;100218.63;;;12.71;100.00
76011;BME280;64701;43.536;1.478;2024-03-23T06:35:26;100221.16;;;12.79;100.00
76011;BME280;64701;43.536;1.478;2024-03-23T06:37:51;100223.56;;;12.74;100.00
76011;BME280;64701;43.536;1.478;2024-03-23T06:40:17;100227.13;;;12.81;100.00
76011;BME280;64701;43.536;1.478;2024-03-23T06:42:42;100230.56;;;12.81;100.00
76011;BME280;64701;43.536;1.478;2024-03-23T06:45:08;100235.09;;;12.81;100.00
76011;BME280;64701;43.536;1.478;2024-03-23T06:47:33;100242.09;;;12.88;100.00
76011;BME280;64701;43.536;1.478;2024-03-23T06:49:59;100237.94;;;12.79;100.00
76011;BME280;64701;43.536;1.478;2024-03-23T06:52:26;100236.34;;;12.85;100.00
76011;BME280;64701;43.536;1.478;2024-03-23T06:54:52;100238.38;;;12.83;100.00
76011;BME280;64701;43.536;1.478;2024-03-23T06:57:17;100242.44;;;12.79;100.00
76011;BME280;64701;43.536;1.478;2024-03-23T06:59:43;100246.34;;;12.83;100.00
76011;BME280;64701;43.536;1.478;2024-03-23T07:02:08;100249.06;;;12.89;100.00
76011;BME280;64701;43.536;1.478;2024-03-23T07:04:34;100249.06;;;12.89;100.00
76011;BME280;64701;43.536;1.478;2024-03-23T07:06:59;100253.63;;;12.74;100.00
76011;BME280;64701;43.536;1.478;2024-03-23T07:09:24;100254.63;;;12.73;100.00
76011;BME280;64701;43.536;1.478;2024-03-23T07:11:51;100257.09;;;12.75;100.00
76011;BME280;64701;43.536;1.478;2024-03-23T07:14:18;100254.56;;;12.66;100.00
76011;BME280;64701;43.536;1.478;2024-03-23T07:16:43;100259.44;;;12.63;100.00
76011;BME280;64701;43.536;1.478;2024-03-23T07:19:09;100264.84;;;12.55;100.00
76011;BME280;64701;43.536;1.478;2024-03-23T07:21:34;100258.53;;;12.41;100.00
76011;BME280;64701;43.536;1.478;2024-03-23T07:24:00;100263.22;;;12.39;100.00
76011;BME280;64701;43.536;1.478;2024-03-23T07:26:25;100262.75;;;12.36;100.00
76011;BME280;64701;43.536;1.478;2024-03-23T07:28:50;100269.63;;;12.30;100.00
76011;BME280;64701;43.536;1.478;2024-03-23T07:31:17;100263.50;;;12.30;100.00
76011;BME280;64701;43.536;1.478;2024-03-23T07:33:43;100268.97;;;12.28;100.00
76011;BME280;64701;43.536;1.478;2024-03-23T07:36:09;100278.97;;;12.26;100.00
76011;BME280;64701;43.536;1.478;2024-03-23T07:38:34;100285.94;;;12.27;100.00
76011;BME280;64701;43.536;1.478;2024-03-23T07:41:06;100289.22;;;12.29;100.00
76011;BME280;64701;43.536;1.478;2024-03-23T07:43:32;100295.44;;;12.36;100.00
76011;BME280;64701;43.536;1.478;2024-03-23T07:45:57;100293.59;;;12.22;100.00
76011;BME280;64701;43.536;1.478;2024-03-23T07:48:23;100292.34;;;12.18;100.00
76011;BME280;64701;43.536;1.478;2024-03-23T07:53:32;100309.44;;;12.01;100.00
76011;BME280;64701;43.536;1.478;2024-03-23T07:56:02;100309.44;;;12.01;100.00
76011;BME280;64701;43.536;1.478;2024-03-23T07:58:27;100317.03;;;11.89;100.00
76011;BME280;64701;43.536;1.478;2024-03-23T08:00:53;100321.88;;;11.85;100.00
76011;BME280;64701;43.536;1.478;2024-03-23T08:03:18;100319.94;;;11.79;100.00
76011;BME280;64701;43.536;1.478;2024-03-23T08:05:44;100330.41;;;11.73;100.00
76011;BME280;64701;43.536;1.478;2024-03-23T08:08:09;100339.25;;;11.65;100.00
76011;BME280;64701;43.536;1.478;2024-03-23T08:10:34;100342.91;;;11.64;100.00
76011;BME280;64701;43.536;1.478;2024-03-23T08:13:00;100349.59;;;11.60;100.00
76011;BME280;64701;43.536;1.478;2024-03-23T08:15:25;100355.75;;;11.53;100.00
76011;BME280;64701;43.536;1.478;2024-03-23T08:17:50;100358.84;;;11.41;100.00
76011;BME280;64701;43.536;1.478;2024-03-23T08:20:16;100360.91;;;11.54;100.00
76011;BME280;64701;43.536;1.478;2024-03-23T08:22:41;100366.38;;;11.53;100.00
76011;BME280;64701;43.536;1.478;2024-03-23T08:25:06;100372.50;;;11.53;100.00
76011;BME280;64701;43.536;1.478;2024-03-23T08:27:31;100369.16;;;11.59;100.00
76011;BME280;64701;43.536;1.478;2024-03-23T08:29:58;100370.84;;;11.52;100.00
76011;BME280;64701;43.536;1.478;2024-03-23T08:32:23;100379.34;;;11.70;100.00
76011;BME280;64701;43.536;1.478;2024-03-23T08:34:48;100379.72;;;11.67;100.00
76011;BME280;64701;43.536;1.478;2024-03-23T08:37:13;100381.00;;;11.71;100.00
76011;BME280;64701;43.536;1.478;2024-03-23T08:39:39;100391.28;;;11.74;100.00
76011;BME280;64701;43.536;1.478;2024-03-23T08:42:04;100398.91;;;11.69;100.00
76011;BME280;64701;43.536;1.478;2024-03-23T08:44:30;100401.16;;;11.58;100.00
76011;BME280;64701;43.536;1.478;2024-03-23T08:46:58;100398.31;;;11.59;100.00
76011;BME280;64701;43.536;1.478;2024-03-23T08:49:24;100400.59;;;11.62;100.00
76011;BME280;64701;43.536;1.478;2024-03-23T08:51:49;100410.59;;;11.60;100.00
76011;BME280;64701;43.536;1.478;2024-03-23T08:54:14;100414.69;;;11.63;100.00
76011;BME280;64701;43.536;1.478;2024-03-23T08:56:39;100412.88;;;11.63;100.00
76011;BME280;64701;43.536;1.478;2024-03-23T08:59:05;100421.31;;;11.67;100.00
76011;BME280;64701;43.536;1.478;2024-03-23T09:01:30;100411.75;;;11.58;100.00
76011;BME280;64701;43.536;1.478;2024-03-23T09:03:56;100411.75;;;11.58;100.00
76011;BME280;64701;43.536;1.478;2024-03-23T09:06:21;100423.91;;;11.52;100.00
76011;BME280;64701;43.536;1.478;2024-03-23T09:08:46;100423.72;;;11.54;100.00
76011;BME280;64701;43.536;1.478;2024-03-23T09:11:12;100421.59;;;11.49;100.00
76011;BME280;64701;43.536;1.478;2024-03-23T09:13:38;100415.59;;;11.55;100.00
76011;BME280;64701;43.536;1.478;2024-03-23T09:16:03;100417.31;;;11.48;100.00
76011;BME280;64701;43.536;1.478;2024-03-23T09:18:31;100421.13;;;11.45;100.00
76011;BME280;64701;43.536;1.478;2024-03-23T09:20:56;100415.97;;;11.44;100.00
76011;BME280;64701;43.536;1.478;2024-03-23T09:23:22;100419.09;;;11.56;100.00
76011;BME280;64701;43.536;1.478;2024-03-23T09:25:47;100414.97;;;11.76;100.00
76011;BME280;64701;43.536;1.478;2024-03-23T09:28:12;100416.03;;;11.90;100.00
76011;BME280;64701;43.536;1.478;2024-03-23T09:30:37;100413.91;;;12.08;100.00
76011;BME280;64701;43.536;1.478;2024-03-23T09:33:07;100413.75;;;12.24;100.00
76011;BME280;64701;43.536;1.478;2024-03-23T09:35:36;100403.97;;;12.39;91.03
76011;BME280;64701;43.536;1.478;2024-03-23T09:38:01;100404.81;;;12.69;94.20
76011;BME280;64701;43.536;1.478;2024-03-23T09:40:26;100410.03;;;12.92;88.91
76011;BME280;64701;43.536;1.478;2024-03-23T09:42:52;100402.13;;;12.98;82.48
76011;BME280;64701;43.536;1.478;2024-03-23T09:45:21;100410.75;;;13.15;85.44
76011;BME280;64701;43.536;1.478;2024-03-23T09:47:47;100410.91;;;13.28;83.29
76011;BME280;64701;43.536;1.478;2024-03-23T09:50:13;100409.13;;;13.35;80.41
76011;BME280;64701;43.536;1.478;2024-03-23T09:52:38;100411.66;;;13.58;80.52
76011;BME280;64701;43.536;1.478;2024-03-23T09:55:04;100407.50;;;13.77;80.67
76011;BME280;64701;43.536;1.478;2024-03-23T09:57:29;100402.25;;;13.83;75.83
76011;BME280;64701;43.536;1.478;2024-03-23T09:59:54;100406.31;;;13.79;73.25
76011;BME280;64701;43.536;1.478;2024-03-23T10:02:21;100407.50;;;13.98;78.72
76011;BME280;64701;43.536;1.478;2024-03-23T10:04:47;100414.16;;;14.09;70.95
76011;BME280;64701;43.536;1.478;2024-03-23T10:07:14;100412.03;;;14.25;72.41
76011;BME280;64701;43.536;1.478;2024-03-23T10:09:39;100400.09;;;14.43;66.26
76011;BME280;64701;43.536;1.478;2024-03-23T10:12:08;100398.34;;;14.56;67.75
76011;BME280;64701;43.536;1.478;2024-03-23T10:14:34;100394.56;;;14.79;66.96
76011;BME280;64701;43.536;1.478;2024-03-23T10:17:11;100390.84;;;14.73;62.51
76011;BME280;64701;43.536;1.478;2024-03-23T10:19:36;100401.88;;;15.04;69.55
76011;BME280;64701;43.536;1.478;2024-03-23T10:22:01;100386.53;;;15.20;62.03
76011;BME280;64701;43.536;1.478;2024-03-23T10:24:27;100380.25;;;15.47;63.94
76011;BME280;64701;43.536;1.478;2024-03-23T10:26:58;100388.66;;;15.50;57.26
76011;BME280;64701;43.536;1.478;2024-03-23T10:29:23;100388.09;;;15.55;57.10
76011;BME280;64701;43.536;1.478;2024-03-23T10:31:51;100379.09;;;15.76;60.06
76011;BME280;64701;43.536;1.478;2024-03-23T10:34:16;100386.47;;;15.80;58.53
76011;BME280;64701;43.536;1.478;2024-03-23T10:36:41;100375.19;;;16.11;56.03
76011;BME280;64701;43.536;1.478;2024-03-23T10:39:07;100372.50;;;16.05;53.08
76011;BME280;64701;43.536;1.478;2024-03-23T10:41:32;100373.06;;;16.46;55.74
76011;BME280;64701;43.536;1.478;2024-03-23T10:43:58;100371.41;;;16.52;56.21
76011;BME280;64701;43.536;1.478;2024-03-23T10:46:24;100370.53;;;16.91;56.99
76011;BME280;64701;43.536;1.478;2024-03-23T10:48:50;100367.19;;;17.02;54.55
76011;BME280;64701;43.536;1.478;2024-03-23T10:51:15;100356.28;;;16.97;50.25
76011;BME280;64701;43.536;1.478;2024-03-23T10:53:41;100361.59;;;17.10;49.53
76011;BME280;64701;43.536;1.478;2024-03-23T10:56:06;100360.31;;;17.50;50.39
76011;BME280;64701;43.536;1.478;2024-03-23T10:58:42;100345.06;;;17.82;52.54
76011;BME280;64701;43.536;1.478;2024-03-23T11:01:12;100333.59;;;18.18;49.16
76011;BME280;64701;43.536;1.478;2024-03-23T11:03:38;100331.63;;;18.50;47.43
76011;BME280;64701;43.536;1.478;2024-03-23T11:06:04;100329.72;;;18.75;48.31
76011;BME280;64701;43.536;1.478;2024-03-23T11:08:30;100337.66;;;19.00;46.10
76011;BME280;64701;43.536;1.478;2024-03-23T11:11:11;100332.56;;;19.40;46.58
76011;BME280;64701;43.536;1.478;2024-03-23T11:13:37;100330.69;;;19.71;45.64
76011;BME280;64701;43.536;1.478;2024-03-23T11:16:15;100324.50;;;20.28;46.10
76011;BME280;64701;43.536;1.478;2024-03-23T11:18:40;100332.28;;;20.76;44.49
76011;BME280;64701;43.536;1.478;2024-03-23T11:21:07;100328.88;;;21.21;40.90
76011;BME280;64701;43.536;1.478;2024-03-23T11:23:32;100315.75;;;21.41;39.00
76011;BME280;64701;43.536;1.478;2024-03-23T11:25:57;100305.41;;;22.00;38.32
76011;BME280;64701;43.536;1.478;2024-03-23T11:28:25;100308.19;;;22.05;37.43
76011;BME280;64701;43.536;1.478;2024-03-23T11:30:50;100291.94;;;22.38;37.60
76011;BME280;64701;43.536;1.478;2024-03-23T11:33:15;100282.63;;;22.29;36.19
76011;BME280;64701;43.536;1.478;2024-03-23T11:35:41;100295.84;;;22.91;37.06
76011;BME280;64701;43.536;1.478;2024-03-23T11:40:42;100280.63;;;23.12;35.23
76011;BME280;64701;43.536;1.478;2024-03-23T11:43:08;100276.56;;;23.09;31.77
76011;BME280;64701;43.536;1.478;2024-03-23T11:45:38;100267.97;;;23.44;34.55
76011;BME280;64701;43.536;1.478;2024-03-23T11:48:04;100257.59;;;23.58;32.18
76011;BME280;64701;43.536;1.478;2024-03-23T11:50:30;100248.97;;;23.66;30.69
76011;BME280;64701;43.536;1.478;2024-03-23T11:53:06;100244.53;;;23.50;29.58
76011;BME280;64701;43.536;1.478;2024-03-23T11:55:38;100252.91;;;23.90;29.29
76011;BME280;64701;43.536;1.478;2024-03-23T11:58:04;100250.13;;;23.75;29.49
76011;BME280;64701;43.536;1.478;2024-03-23T12:00:29;100244.75;;;23.80;30.64
76011;BME280;64701;43.536;1.478;2024-03-23T12:02:59;100239.25;;;24.12;30.47
76011;BME280;64701;43.536;1.478;2024-03-23T12:05:25;100235.69;;;24.59;29.93
76011;BME280;64701;43.536;1.478;2024-03-23T12:07:51;100240.88;;;24.75;28.87
76011;BME280;64701;43.536;1.478;2024-03-23T12:10:18;100232.63;;;24.30;28.24
76011;BME280;64701;43.536;1.478;2024-03-23T12:12:44;100219.59;;;24.32;28.96
76011;BME280;64701;43.536;1.478;2024-03-23T12:15:09;100230.06;;;24.86;30.16
76011;BME280;64701;43.536;1.478;2024-03-23T12:17:36;100217.09;;;24.93;28.92
76011;BME280;64701;43.536;1.478;2024-03-23T12:20:01;100205.19;;;25.44;27.71
76011;BME280;64701;43.536;1.478;2024-03-23T12:22:26;100199.75;;;25.39;26.44
76011;BME280;64701;43.536;1.478;2024-03-23T12:24:52;100198.13;;;25.53;26.77
76011;BME280;64701;43.536;1.478;2024-03-23T12:27:17;100195.38;;;25.89;26.69
76011;BME280;64701;43.536;1.478;2024-03-23T12:29:43;100203.84;;;25.67;26.10
76011;BME280;64701;43.536;1.478;2024-03-23T12:32:11;100193.69;;;26.08;27.02
76011;BME280;64701;43.536;1.478;2024-03-23T12:34:36;100189.38;;;26.02;25.61
76011;BME280;64701;43.536;1.478;2024-03-23T12:37:01;100181.34;;;26.41;26.85
76011;BME280;64701;43.536;1.478;2024-03-23T12:39:27;100178.72;;;26.70;25.81
76011;BME280;64701;43.536;1.478;2024-03-23T12:41:52;100172.91;;;26.87;24.49
76011;BME280;64701;43.536;1.478;2024-03-23T12:44:20;100169.63;;;26.51;24.32
76011;BME280;64701;43.536;1.478;2024-03-23T12:46:46;100165.91;;;26.75;26.84
76011;BME280;64701;43.536;1.478;2024-03-23T12:49:11;100156.56;;;26.97;23.92
76011;BME280;64701;43.536;1.478;2024-03-23T12:51:37;100164.38;;;27.03;23.79
76011;BME280;64701;43.536;1.478;2024-03-23T12:54:02;100160.13;;;27.79;24.71
76011;BME280;64701;43.536;1.478;2024-03-23T12:56:27;100143.91;;;28.16;22.85
76011;BME280;64701;43.536;1.478;2024-03-23T12:58:53;100137.88;;;28.38;22.22
76011;BME280;64701;43.536;1.478;2024-03-23T13:01:20;100137.75;;;28.86;21.90
76011;BME280;64701;43.536;1.478;2024-03-23T13:03:48;100136.06;;;28.71;22.39
76011;BME280;64701;43.536;1.478;2024-03-23T13:06:14;100129.22;;;28.73;21.46
76011;BME280;64701;43.536;1.478;2024-03-23T13:08:40;100138.53;;;28.49;21.75
76011;BME280;64701;43.536;1.478;2024-03-23T13:11:09;100131.19;;;28.49;22.50
76011;BME280;64701;43.536;1.478;2024-03-23T13:13:35;100115.28;;;28.75;20.30
76011;BME280;64701;43.536;1.478;2024-03-23T13:16:01;100111.81;;;28.88;20.79
76011;BME280;64701;43.536;1.478;2024-03-23T13:18:27;100107.97;;;28.89;22.73
76011;BME280;64701;43.536;1.478;2024-03-23T13:20:52;100102.00;;;28.87;21.64
76011;BME280;64701;43.536;1.478;2024-03-23T13:23:18;100093.91;;;28.82;21.51
76011;BME280;64701;43.536;1.478;2024-03-23T13:25:56;100097.41;;;29.01;22.85
76011;BME280;64701;43.536;1.478;2024-03-23T13:28:21;100091.81;;;29.25;23.40
76011;BME280;64701;43.536;1.478;2024-03-23T13:30:51;100080.91;;;29.80;22.80
76011;BME280;64701;43.536;1.478;2024-03-23T13:33:16;100088.00;;;29.67;20.89
76011;BME280;64701;43.536;1.478;2024-03-23T13:35:48;100081.53;;;29.36;21.25